CMB803 Details

Departure: Norfolk Naval Station (Chambers Field) (KNGU)
Arrival: Guantánamo Bay Naval Air Station (MUGM) at N/A
Route: SWOPE ECG DIW IDOLS Y323 CARPX AR3 NUCAR Y374 RUMFO ZIN EASTP SOUTP SOUTP2
Notes: USTRANSCOM CONTRACT FLIGHT | OVERFLIGHT OF CUBA PROHIBITED | SOUTP & EASTP FIXES MANDATORY


Current Weather Information
KNGU 191559Z VRB03KT 10SM FEW040 FEW300 33/24 A3004 RMK AO2 SLP173 T03280239
MUGM 191557Z 13009KT 9999 FEW030 FEW120 BKN280 32/24 A3002 RMK WSHFT 1514 SLP165 T03220244